sensor_id;sensor_type;location;lat;lon;timestamp;P1;durP1;ratioP1;P2;durP2;ratioP2
36671;SDS011;22663;47.412;9.742;2023-01-16T00:01:50;0.55;;;0.30;;
36671;SDS011;22663;47.412;9.742;2023-01-16T00:04:16;0.65;;;0.10;;
36671;SDS011;22663;47.412;9.742;2023-01-16T00:06:43;0.13;;;0.13;;
36671;SDS011;22663;47.412;9.742;2023-01-16T00:09:09;1.40;;;0.00;;
36671;SDS011;22663;47.412;9.742;2023-01-16T00:11:35;0.43;;;0.10;;
36671;SDS011;22663;47.412;9.742;2023-01-16T00:14:01;0.20;;;0.10;;
36671;SDS011;22663;47.412;9.742;2023-01-16T00:16:27;0.20;;;0.17;;
36671;SDS011;22663;47.412;9.742;2023-01-16T00:18:53;1.17;;;0.25;;
36671;SDS011;22663;47.412;9.742;2023-01-16T00:21:19;0.47;;;0.20;;
36671;SDS011;22663;47.412;9.742;2023-01-16T00:23:46;0.65;;;0.10;;
36671;SDS011;22663;47.412;9.742;2023-01-16T00:26:12;0.73;;;0.63;;
36671;SDS011;22663;47.412;9.742;2023-01-16T00:28:38;0.20;;;0.10;;
36671;SDS011;22663;47.412;9.742;2023-01-16T00:31:05;0.25;;;0.20;;
36671;SDS011;22663;47.412;9.742;2023-01-16T00:33:31;0.50;;;0.30;;
36671;SDS011;22663;47.412;9.742;2023-01-16T00:35:58;0.10;;;0.10;;
36671;SDS011;22663;47.412;9.742;2023-01-16T00:38:24;0.25;;;0.20;;
36671;SDS011;22663;47.412;9.742;2023-01-16T00:40:50;0.20;;;0.10;;
36671;SDS011;22663;47.412;9.742;2023-01-16T00:43:16;0.45;;;0.17;;
36671;SDS011;22663;47.412;9.742;2023-01-16T00:45:42;0.63;;;0.20;;
36671;SDS011;22663;47.412;9.742;2023-01-16T00:48:08;0.20;;;0.10;;
36671;SDS011;22663;47.412;9.742;2023-01-16T00:50:34;0.93;;;0.30;;
36671;SDS011;22663;47.412;9.742;2023-01-16T00:53:00;0.20;;;0.10;;
36671;SDS011;22663;47.412;9.742;2023-01-16T00:55:26;0.10;;;0.10;;
36671;SDS011;22663;47.412;9.742;2023-01-16T00:57:52;0.45;;;0.10;;
36671;SDS011;22663;47.412;9.742;2023-01-16T01:00:20;0.40;;;0.10;;
36671;SDS011;22663;47.412;9.742;2023-01-16T01:02:49;0.65;;;0.20;;
36671;SDS011;22663;47.412;9.742;2023-01-16T01:05:15;2.05;;;0.20;;
36671;SDS011;22663;47.412;9.742;2023-01-16T01:07:41;0.60;;;0.20;;
36671;SDS011;22663;47.412;9.742;2023-01-16T01:10:08;0.08;;;0.00;;
36671;SDS011;22663;47.412;9.742;2023-01-16T01:12:34;0.35;;;0.13;;
36671;SDS011;22663;47.412;9.742;2023-01-16T01:15:01;0.70;;;0.10;;
36671;SDS011;22663;47.412;9.742;2023-01-16T01:17:27;0.10;;;0.10;;
36671;SDS011;22663;47.412;9.742;2023-01-16T01:19:53;0.80;;;0.40;;
36671;SDS011;22663;47.412;9.742;2023-01-16T01:22:19;0.80;;;0.60;;
36671;SDS011;22663;47.412;9.742;2023-01-16T01:24:48;0.80;;;0.50;;
36671;SDS011;22663;47.412;9.742;2023-01-16T01:27:15;1.38;;;0.52;;
36671;SDS011;22663;47.412;9.742;2023-01-16T01:29:41;1.73;;;0.60;;
36671;SDS011;22663;47.412;9.742;2023-01-16T01:32:07;2.08;;;0.30;;
36671;SDS011;22663;47.412;9.742;2023-01-16T01:34:33;2.45;;;0.50;;
36671;SDS011;22663;47.412;9.742;2023-01-16T01:37:06;0.38;;;0.20;;
36671;SDS011;22663;47.412;9.742;2023-01-16T01:39:32;1.10;;;0.13;;
36671;SDS011;22663;47.412;9.742;2023-01-16T01:41:58;0.20;;;0.15;;
36671;SDS011;22663;47.412;9.742;2023-01-16T01:47:09;0.45;;;0.10;;
36671;SDS011;22663;47.412;9.742;2023-01-16T01:49:36;0.32;;;0.30;;
36671;SDS011;22663;47.412;9.742;2023-01-16T01:52:02;0.60;;;0.30;;
36671;SDS011;22663;47.412;9.742;2023-01-16T01:54:31;0.93;;;0.20;;
36671;SDS011;22663;47.412;9.742;2023-01-16T01:57:02;0.10;;;0.10;;
36671;SDS011;22663;47.412;9.742;2023-01-16T01:59:31;0.10;;;0.10;;
36671;SDS011;22663;47.412;9.742;2023-01-16T02:01:58;0.73;;;0.20;;
36671;SDS011;22663;47.412;9.742;2023-01-16T02:04:29;0.75;;;0.28;;
36671;SDS011;22663;47.412;9.742;2023-01-16T02:06:57;0.13;;;0.10;;
36671;SDS011;22663;47.412;9.742;2023-01-16T02:09:24;0.20;;;0.20;;
36671;SDS011;22663;47.412;9.742;2023-01-16T02:14:20;0.20;;;0.20;;
36671;SDS011;22663;47.412;9.742;2023-01-16T02:16:48;0.20;;;0.20;;
36671;SDS011;22663;47.412;9.742;2023-01-16T02:37:47;0.10;;;0.10;;
36671;SDS011;22663;47.412;9.742;2023-01-16T02:40:23;0.82;;;0.13;;
36671;SDS011;22663;47.412;9.742;2023-01-16T02:45:29;0.65;;;0.32;;
36671;SDS011;22663;47.412;9.742;2023-01-16T02:47:58;0.10;;;0.10;;
36671;SDS011;22663;47.412;9.742;2023-01-16T02:55:54;0.60;;;0.55;;
36671;SDS011;22663;47.412;9.742;2023-01-16T02:58:22;1.07;;;0.10;;
36671;SDS011;22663;47.412;9.742;2023-01-16T03:00:52;0.00;;;0.00;;
36671;SDS011;22663;47.412;9.742;2023-01-16T03:08:49;0.43;;;0.30;;
36671;SDS011;22663;47.412;9.742;2023-01-16T03:11:20;0.10;;;0.10;;
36671;SDS011;22663;47.412;9.742;2023-01-16T03:19:12;0.30;;;0.20;;
36671;SDS011;22663;47.412;9.742;2023-01-16T03:21:41;0.50;;;0.20;;
36671;SDS011;22663;47.412;9.742;2023-01-16T03:27:00;0.20;;;0.10;;
36671;SDS011;22663;47.412;9.742;2023-01-16T03:29:29;1.17;;;0.30;;
36671;SDS011;22663;47.412;9.742;2023-01-16T03:37:33;0.60;;;0.30;;
36671;SDS011;22663;47.412;9.742;2023-01-16T03:40:06;0.80;;;0.20;;
36671;SDS011;22663;47.412;9.742;2023-01-16T03:45:11;1.90;;;1.13;;
36671;SDS011;22663;47.412;9.742;2023-01-16T03:47:41;0.93;;;0.50;;
36671;SDS011;22663;47.412;9.742;2023-01-16T03:50:08;1.58;;;0.50;;
36671;SDS011;22663;47.412;9.742;2023-01-16T03:52:45;0.93;;;0.43;;
36671;SDS011;22663;47.412;9.742;2023-01-16T03:55:14;2.03;;;0.30;;
36671;SDS011;22663;47.412;9.742;2023-01-16T03:57:43;1.37;;;0.50;;
36671;SDS011;22663;47.412;9.742;2023-01-16T04:00:11;1.20;;;0.80;;
36671;SDS011;22663;47.412;9.742;2023-01-16T04:02:40;1.20;;;0.80;;
36671;SDS011;22663;47.412;9.742;2023-01-16T04:05:17;3.03;;;0.90;;
36671;SDS011;22663;47.412;9.742;2023-01-16T04:07:45;1.13;;;0.80;;
36671;SDS011;22663;47.412;9.742;2023-01-16T04:10:15;1.30;;;0.93;;
36671;SDS011;22663;47.412;9.742;2023-01-16T04:12:44;1.20;;;0.83;;
36671;SDS011;22663;47.412;9.742;2023-01-16T04:15:11;1.43;;;1.10;;
36671;SDS011;22663;47.412;9.742;2023-01-16T04:17:38;1.97;;;1.23;;
36671;SDS011;22663;47.412;9.742;2023-01-16T04:20:05;3.50;;;1.10;;
36671;SDS011;22663;47.412;9.742;2023-01-16T04:22:32;2.17;;;1.20;;
36671;SDS011;22663;47.412;9.742;2023-01-16T04:24:59;0.90;;;0.83;;
36671;SDS011;22663;47.412;9.742;2023-01-16T04:27:26;2.27;;;1.20;;
36671;SDS011;22663;47.412;9.742;2023-01-16T04:29:52;2.77;;;1.17;;
36671;SDS011;22663;47.412;9.742;2023-01-16T04:32:18;2.20;;;1.80;;
36671;SDS011;22663;47.412;9.742;2023-01-16T04:34:44;1.50;;;1.40;;
36671;SDS011;22663;47.412;9.742;2023-01-16T04:37:14;2.80;;;2.13;;
36671;SDS011;22663;47.412;9.742;2023-01-16T04:39:40;3.87;;;2.30;;
36671;SDS011;22663;47.412;9.742;2023-01-16T04:42:07;4.30;;;2.90;;
36671;SDS011;22663;47.412;9.742;2023-01-16T04:44:33;3.80;;;2.80;;
36671;SDS011;22663;47.412;9.742;2023-01-16T04:46:59;5.47;;;2.33;;
36671;SDS011;22663;47.412;9.742;2023-01-16T04:49:25;2.47;;;1.80;;
36671;SDS011;22663;47.412;9.742;2023-01-16T04:51:51;1.77;;;1.23;;
36671;SDS011;22663;47.412;9.742;2023-01-16T04:54:18;1.87;;;1.67;;
36671;SDS011;22663;47.412;9.742;2023-01-16T04:56:44;2.33;;;1.80;;
36671;SDS011;22663;47.412;9.742;2023-01-16T04:59:11;3.40;;;2.13;;
36671;SDS011;22663;47.412;9.742;2023-01-16T05:01:38;2.87;;;2.00;;
36671;SDS011;22663;47.412;9.742;2023-01-16T05:04:05;2.73;;;1.90;;
36671;SDS011;22663;47.412;9.742;2023-01-16T05:06:31;2.60;;;1.60;;
36671;SDS011;22663;47.412;9.742;2023-01-16T05:08:58;3.33;;;1.80;;
36671;SDS011;22663;47.412;9.742;2023-01-16T05:11:24;3.17;;;1.80;;
36671;SDS011;22663;47.412;9.742;2023-01-16T05:13:50;4.20;;;2.13;;
36671;SDS011;22663;47.412;9.742;2023-01-16T05:16:17;3.57;;;2.50;;
36671;SDS011;22663;47.412;9.742;2023-01-16T05:18:43;6.17;;;3.33;;
36671;SDS011;22663;47.412;9.742;2023-01-16T05:21:09;5.27;;;2.90;;
36671;SDS011;22663;47.412;9.742;2023-01-16T05:23:35;3.93;;;2.60;;
36671;SDS011;22663;47.412;9.742;2023-01-16T05:26:02;4.03;;;2.83;;
36671;SDS011;22663;47.412;9.742;2023-01-16T05:28:29;4.77;;;2.60;;
36671;SDS011;22663;47.412;9.742;2023-01-16T05:30:55;3.17;;;2.43;;
36671;SDS011;22663;47.412;9.742;2023-01-16T05:33:21;3.73;;;2.70;;
36671;SDS011;22663;47.412;9.742;2023-01-16T05:35:47;2.87;;;2.47;;
36671;SDS011;22663;47.412;9.742;2023-01-16T05:38:14;3.90;;;2.40;;
36671;SDS011;22663;47.412;9.742;2023-01-16T05:40:40;3.10;;;2.20;;
36671;SDS011;22663;47.412;9.742;2023-01-16T05:43:07;4.30;;;2.90;;
36671;SDS011;22663;47.412;9.742;2023-01-16T05:45:33;4.20;;;2.77;;
36671;SDS011;22663;47.412;9.742;2023-01-16T05:47:59;4.00;;;2.63;;
36671;SDS011;22663;47.412;9.742;2023-01-16T05:50:25;3.90;;;2.97;;
36671;SDS011;22663;47.412;9.742;2023-01-16T05:52:51;3.90;;;3.20;;
36671;SDS011;22663;47.412;9.742;2023-01-16T05:55:17;5.30;;;3.07;;
36671;SDS011;22663;47.412;9.742;2023-01-16T05:57:43;4.37;;;2.97;;
36671;SDS011;22663;47.412;9.742;2023-01-16T06:00:09;4.60;;;3.40;;
36671;SDS011;22663;47.412;9.742;2023-01-16T06:02:35;3.63;;;2.63;;
36671;SDS011;22663;47.412;9.742;2023-01-16T06:05:02;5.33;;;2.97;;
36671;SDS011;22663;47.412;9.742;2023-01-16T06:07:28;3.77;;;2.70;;
36671;SDS011;22663;47.412;9.742;2023-01-16T06:09:54;5.80;;;2.77;;
36671;SDS011;22663;47.412;9.742;2023-01-16T06:12:20;5.53;;;3.00;;
36671;SDS011;22663;47.412;9.742;2023-01-16T06:14:46;4.43;;;2.83;;
36671;SDS011;22663;47.412;9.742;2023-01-16T06:17:13;6.10;;;2.80;;
36671;SDS011;22663;47.412;9.742;2023-01-16T06:19:39;3.87;;;2.60;;
36671;SDS011;22663;47.412;9.742;2023-01-16T06:22:06;3.87;;;2.47;;
36671;SDS011;22663;47.412;9.742;2023-01-16T06:24:32;5.23;;;2.57;;
36671;SDS011;22663;47.412;9.742;2023-01-16T06:26:58;3.20;;;1.90;;
36671;SDS011;22663;47.412;9.742;2023-01-16T06:29:24;3.43;;;1.93;;
36671;SDS011;22663;47.412;9.742;2023-01-16T06:31:50;4.13;;;2.27;;
36671;SDS011;22663;47.412;9.742;2023-01-16T06:34:16;2.93;;;1.87;;
36671;SDS011;22663;47.412;9.742;2023-01-16T06:36:42;2.03;;;1.10;;
36671;SDS011;22663;47.412;9.742;2023-01-16T06:39:11;2.67;;;1.40;;
36671;SDS011;22663;47.412;9.742;2023-01-16T06:41:37;2.00;;;1.07;;
36671;SDS011;22663;47.412;9.742;2023-01-16T06:44:03;3.03;;;1.77;;
36671;SDS011;22663;47.412;9.742;2023-01-16T06:46:29;4.50;;;2.10;;
36671;SDS011;22663;47.412;9.742;2023-01-16T06:48:56;2.47;;;0.70;;
36671;SDS011;22663;47.412;9.742;2023-01-16T06:51:22;1.67;;;0.93;;
36671;SDS011;22663;47.412;9.742;2023-01-16T06:53:52;1.60;;;0.80;;
36671;SDS011;22663;47.412;9.742;2023-01-16T06:56:19;0.70;;;0.50;;
36671;SDS011;22663;47.412;9.742;2023-01-16T06:58:45;1.03;;;0.40;;
36671;SDS011;22663;47.412;9.742;2023-01-16T07:01:11;0.77;;;0.40;;
36671;SDS011;22663;47.412;9.742;2023-01-16T07:03:37;0.73;;;0.40;;
36671;SDS011;22663;47.412;9.742;2023-01-16T07:06:03;0.97;;;0.60;;
36671;SDS011;22663;47.412;9.742;2023-01-16T07:08:29;0.40;;;0.30;;
36671;SDS011;22663;47.412;9.742;2023-01-16T07:10:59;1.20;;;0.40;;
36671;SDS011;22663;47.412;9.742;2023-01-16T07:13:25;1.15;;;0.40;;
36671;SDS011;22663;47.412;9.742;2023-01-16T07:15:54;0.93;;;0.40;;
36671;SDS011;22663;47.412;9.742;2023-01-16T07:18:40;0.80;;;0.50;;
36671;SDS011;22663;47.412;9.742;2023-01-16T07:21:25;0.97;;;0.40;;
36671;SDS011;22663;47.412;9.742;2023-01-16T07:24:13;0.50;;;0.30;;
36671;SDS011;22663;47.412;9.742;2023-01-16T07:26:40;1.23;;;0.50;;
36671;SDS011;22663;47.412;9.742;2023-01-16T07:29:08;0.50;;;0.40;;
36671;SDS011;22663;47.412;9.742;2023-01-16T07:31:34;1.13;;;0.40;;
36671;SDS011;22663;47.412;9.742;2023-01-16T07:34:01;0.30;;;0.20;;
36671;SDS011;22663;47.412;9.742;2023-01-16T07:36:27;0.57;;;0.20;;
36671;SDS011;22663;47.412;9.742;2023-01-16T07:38:53;0.43;;;0.30;;
36671;SDS011;22663;47.412;9.742;2023-01-16T07:41:19;2.85;;;0.40;;
36671;SDS011;22663;47.412;9.742;2023-01-16T07:43:45;1.23;;;0.25;;
36671;SDS011;22663;47.412;9.742;2023-01-16T07:46:11;1.10;;;0.50;;
36671;SDS011;22663;47.412;9.742;2023-01-16T07:48:37;0.40;;;0.10;;
36671;SDS011;22663;47.412;9.742;2023-01-16T07:51:03;1.02;;;0.20;;
36671;SDS011;22663;47.412;9.742;2023-01-16T07:53:30;0.40;;;0.25;;
36671;SDS011;22663;47.412;9.742;2023-01-16T07:55:59;0.45;;;0.20;;
36671;SDS011;22663;47.412;9.742;2023-01-16T07:58:26;3.38;;;1.13;;
36671;SDS011;22663;47.412;9.742;2023-01-16T08:00:52;0.75;;;0.52;;
36671;SDS011;22663;47.412;9.742;2023-01-16T08:03:19;1.27;;;0.47;;
36671;SDS011;22663;47.412;9.742;2023-01-16T08:05:45;0.68;;;0.40;;
36671;SDS011;22663;47.412;9.742;2023-01-16T08:08:11;1.30;;;0.40;;
36671;SDS011;22663;47.412;9.742;2023-01-16T08:10:38;0.65;;;0.43;;
36671;SDS011;22663;47.412;9.742;2023-01-16T08:13:04;10.85;;;2.38;;
36671;SDS011;22663;47.412;9.742;2023-01-16T08:15:30;7.88;;;3.35;;
36671;SDS011;22663;47.412;9.742;2023-01-16T08:17:56;5.55;;;2.88;;
36671;SDS011;22663;47.412;9.742;2023-01-16T08:20:23;4.85;;;2.78;;
36671;SDS011;22663;47.412;9.742;2023-01-16T08:22:50;4.75;;;3.17;;
36671;SDS011;22663;47.412;9.742;2023-01-16T08:25:17;5.38;;;2.95;;
36671;SDS011;22663;47.412;9.742;2023-01-16T08:27:44;5.72;;;2.90;;
36671;SDS011;22663;47.412;9.742;2023-01-16T08:30:11;4.90;;;2.45;;
36671;SDS011;22663;47.412;9.742;2023-01-16T08:32:37;6.47;;;3.08;;
36671;SDS011;22663;47.412;9.742;2023-01-16T08:35:03;6.32;;;3.10;;
36671;SDS011;22663;47.412;9.742;2023-01-16T08:37:30;6.32;;;2.58;;
36671;SDS011;22663;47.412;9.742;2023-01-16T08:39:56;7.30;;;3.08;;
36671;SDS011;22663;47.412;9.742;2023-01-16T08:42:22;3.65;;;1.90;;
36671;SDS011;22663;47.412;9.742;2023-01-16T08:45:08;6.22;;;2.08;;
36671;SDS011;22663;47.412;9.742;2023-01-16T08:47:53;4.07;;;2.25;;
36671;SDS011;22663;47.412;9.742;2023-01-16T08:50:38;7.38;;;2.13;;
36671;SDS011;22663;47.412;9.742;2023-01-16T08:53:22;7.47;;;2.42;;
36671;SDS011;22663;47.412;9.742;2023-01-16T08:55:48;3.58;;;2.42;;
36671;SDS011;22663;47.412;9.742;2023-01-16T08:58:14;7.68;;;4.10;;
36671;SDS011;22663;47.412;9.742;2023-01-16T09:00:41;5.43;;;3.67;;
36671;SDS011;22663;47.412;9.742;2023-01-16T09:03:07;5.43;;;3.80;;
36671;SDS011;22663;47.412;9.742;2023-01-16T09:05:33;6.90;;;3.63;;
36671;SDS011;22663;47.412;9.742;2023-01-16T09:07:59;6.35;;;3.97;;
36671;SDS011;22663;47.412;9.742;2023-01-16T09:10:25;7.95;;;4.03;;
36671;SDS011;22663;47.412;9.742;2023-01-16T09:12:53;5.05;;;3.00;;
36671;SDS011;22663;47.412;9.742;2023-01-16T09:15:37;5.05;;;2.47;;
36671;SDS011;22663;47.412;9.742;2023-01-16T09:18:03;3.72;;;2.40;;
36671;SDS011;22663;47.412;9.742;2023-01-16T09:20:29;4.10;;;2.50;;
36671;SDS011;22663;47.412;9.742;2023-01-16T09:22:56;6.07;;;2.70;;
36671;SDS011;22663;47.412;9.742;2023-01-16T09:25:22;4.38;;;2.50;;
36671;SDS011;22663;47.412;9.742;2023-01-16T09:27:48;16.23;;;3.30;;
36671;SDS011;22663;47.412;9.742;2023-01-16T09:30:14;4.88;;;2.60;;
36671;SDS011;22663;47.412;9.742;2023-01-16T09:32:41;5.78;;;2.08;;
36671;SDS011;22663;47.412;9.742;2023-01-16T09:35:09;4.82;;;2.40;;
36671;SDS011;22663;47.412;9.742;2023-01-16T09:37:35;6.53;;;2.08;;
36671;SDS011;22663;47.412;9.742;2023-01-16T09:40:01;4.38;;;2.20;;
36671;SDS011;22663;47.412;9.742;2023-01-16T09:45:23;4.57;;;2.50;;
36671;SDS011;22663;47.412;9.742;2023-01-16T09:47:50;8.00;;;4.22;;
36671;SDS011;22663;47.412;9.742;2023-01-16T09:52:50;4.30;;;2.20;;
36671;SDS011;22663;47.412;9.742;2023-01-16T09:55:39;3.58;;;2.03;;
36671;SDS011;22663;47.412;9.742;2023-01-16T09:58:24;5.72;;;1.85;;
36671;SDS011;22663;47.412;9.742;2023-01-16T10:01:05;3.80;;;1.45;;
36671;SDS011;22663;47.412;9.742;2023-01-16T10:03:32;2.63;;;1.10;;
36671;SDS011;22663;47.412;9.742;2023-01-16T10:09:09;2.08;;;0.75;;
36671;SDS011;22663;47.412;9.742;2023-01-16T10:11:21;2.05;;;0.65;;
36671;SDS011;22663;47.412;9.742;2023-01-16T10:19:20;1.52;;;0.90;;
36671;SDS011;22663;47.412;9.742;2023-01-16T10:26:59;1.40;;;0.50;;
36671;SDS011;22663;47.412;9.742;2023-01-16T10:34:46;1.38;;;0.68;;
36671;SDS011;22663;47.412;9.742;2023-01-16T10:37:15;2.40;;;0.90;;
36671;SDS011;22663;47.412;9.742;2023-01-16T10:39:41;0.95;;;0.52;;
36671;SDS011;22663;47.412;9.742;2023-01-16T10:42:12;3.33;;;0.75;;
36671;SDS011;22663;47.412;9.742;2023-01-16T10:47:48;1.73;;;0.90;;
36671;SDS011;22663;47.412;9.742;2023-01-16T10:50:32;1.65;;;1.02;;
36671;SDS011;22663;47.412;9.742;2023-01-16T10:52:59;1.48;;;0.77;;
36671;SDS011;22663;47.412;9.742;2023-01-16T10:55:25;1.20;;;0.70;;
36671;SDS011;22663;47.412;9.742;2023-01-16T10:57:53;2.03;;;0.70;;
36671;SDS011;22663;47.412;9.742;2023-01-16T11:00:20;1.70;;;0.80;;
36671;SDS011;22663;47.412;9.742;2023-01-16T11:05:29;2.20;;;0.90;;
36671;SDS011;22663;47.412;9.742;2023-01-16T11:07:56;2.10;;;0.90;;
36671;SDS011;22663;47.412;9.742;2023-01-16T11:10:27;2.22;;;0.70;;
36671;SDS011;22663;47.412;9.742;2023-01-16T11:12:53;3.33;;;0.88;;
36671;SDS011;22663;47.412;9.742;2023-01-16T11:15:38;1.92;;;0.90;;
36671;SDS011;22663;47.412;9.742;2023-01-16T11:20:56;4.65;;;0.93;;
36671;SDS011;22663;47.412;9.742;2023-01-16T11:23:23;1.27;;;0.70;;
36671;SDS011;22663;47.412;9.742;2023-01-16T11:25:51;1.52;;;0.73;;
36671;SDS011;22663;47.412;9.742;2023-01-16T11:28:29;1.30;;;0.70;;
36671;SDS011;22663;47.412;9.742;2023-01-16T11:31:02;2.10;;;1.10;;
36671;SDS011;22663;47.412;9.742;2023-01-16T11:33:34;1.50;;;0.80;;
36671;SDS011;22663;47.412;9.742;2023-01-16T11:36:02;2.72;;;0.90;;
36671;SDS011;22663;47.412;9.742;2023-01-16T11:38:31;6.75;;;0.73;;
36671;SDS011;22663;47.412;9.742;2023-01-16T11:40:59;1.90;;;0.70;;
36671;SDS011;22663;47.412;9.742;2023-01-16T11:43:26;2.28;;;0.80;;
36671;SDS011;22663;47.412;9.742;2023-01-16T11:46:25;1.45;;;0.90;;
36671;SDS011;22663;47.412;9.742;2023-01-16T11:49:02;1.35;;;0.77;;
36671;SDS011;22663;47.412;9.742;2023-01-16T11:51:29;3.85;;;0.90;;
36671;SDS011;22663;47.412;9.742;2023-01-16T11:53:56;2.30;;;0.85;;
36671;SDS011;22663;47.412;9.742;2023-01-16T11:56:34;1.25;;;0.77;;
36671;SDS011;22663;47.412;9.742;2023-01-16T12:04:22;1.08;;;0.50;;
36671;SDS011;22663;47.412;9.742;2023-01-16T12:17:09;1.35;;;0.60;;
36671;SDS011;22663;47.412;9.742;2023-01-16T12:32:29;2.65;;;0.80;;
36671;SDS011;22663;47.412;9.742;2023-01-16T12:46:01;1.20;;;0.70;;
36671;SDS011;22663;47.412;9.742;2023-01-16T12:58:44;2.75;;;0.93;;
36671;SDS011;22663;47.412;9.742;2023-01-16T13:01:15;3.33;;;0.95;;
36671;SDS011;22663;47.412;9.742;2023-01-16T13:03:48;2.15;;;0.57;;
36671;SDS011;22663;47.412;9.742;2023-01-16T13:06:19;1.10;;;0.50;;
36671;SDS011;22663;47.412;9.742;2023-01-16T13:08:49;3.03;;;0.75;;
36671;SDS011;22663;47.412;9.742;2023-01-16T13:11:25;2.17;;;0.88;;
36671;SDS011;22663;47.412;9.742;2023-01-16T13:14:10;5.75;;;1.25;;
36671;SDS011;22663;47.412;9.742;2023-01-16T13:16:41;5.47;;;1.33;;
36671;SDS011;22663;47.412;9.742;2023-01-16T13:21:50;2.90;;;1.13;;
36671;SDS011;22663;47.412;9.742;2023-01-16T13:24:21;2.45;;;1.02;;
36671;SDS011;22663;47.412;9.742;2023-01-16T13:26:52;3.80;;;1.05;;
36671;SDS011;22663;47.412;9.742;2023-01-16T13:29:23;3.13;;;1.27;;
36671;SDS011;22663;47.412;9.742;2023-01-16T13:31:55;3.10;;;1.20;;
36671;SDS011;22663;47.412;9.742;2023-01-16T13:34:32;3.20;;;1.20;;
36671;SDS011;22663;47.412;9.742;2023-01-16T13:42:14;2.65;;;0.90;;
36671;SDS011;22663;47.412;9.742;2023-01-16T13:44:42;2.00;;;1.10;;
36671;SDS011;22663;47.412;9.742;2023-01-16T13:47:30;2.53;;;0.90;;
36671;SDS011;22663;47.412;9.742;2023-01-16T13:50:05;1.83;;;0.63;;
36671;SDS011;22663;47.412;9.742;2023-01-16T13:52:31;1.30;;;0.75;;
36671;SDS011;22663;47.412;9.742;2023-01-16T13:55:00;4.72;;;1.10;;
36671;SDS011;22663;47.412;9.742;2023-01-16T13:57:31;2.28;;;0.73;;
36671;SDS011;22663;47.412;9.742;2023-01-16T13:59:58;3.20;;;0.88;;
36671;SDS011;22663;47.412;9.742;2023-01-16T14:13:13;0.80;;;0.52;;
36671;SDS011;22663;47.412;9.742;2023-01-16T14:15:46;0.60;;;0.30;;
36671;SDS011;22663;47.412;9.742;2023-01-16T14:18:38;0.60;;;0.50;;
36671;SDS011;22663;47.412;9.742;2023-01-16T14:21:09;0.57;;;0.30;;
36671;SDS011;22663;47.412;9.742;2023-01-16T14:23:36;0.60;;;0.20;;
36671;SDS011;22663;47.412;9.742;2023-01-16T14:26:24;0.85;;;0.45;;
36671;SDS011;22663;47.412;9.742;2023-01-16T14:28:54;1.25;;;0.30;;
36671;SDS011;22663;47.412;9.742;2023-01-16T14:31:24;0.82;;;0.28;;
36671;SDS011;22663;47.412;9.742;2023-01-16T14:33:53;0.63;;;0.40;;
36671;SDS011;22663;47.412;9.742;2023-01-16T14:36:21;0.30;;;0.20;;
36671;SDS011;22663;47.412;9.742;2023-01-16T14:38:48;1.35;;;0.20;;
36671;SDS011;22663;47.412;9.742;2023-01-16T14:41:16;1.55;;;0.30;;
36671;SDS011;22663;47.412;9.742;2023-01-16T14:46:52;4.85;;;1.00;;
36671;SDS011;22663;47.412;9.742;2023-01-16T14:52:45;3.60;;;1.52;;
36671;SDS011;22663;47.412;9.742;2023-01-16T14:55:52;2.22;;;0.95;;
36671;SDS011;22663;47.412;9.742;2023-01-16T14:58:50;3.58;;;1.20;;
36671;SDS011;22663;47.412;9.742;2023-01-16T15:01:14;2.53;;;1.30;;
36671;SDS011;22663;47.412;9.742;2023-01-16T15:04:08;2.63;;;1.63;;
36671;SDS011;22663;47.412;9.742;2023-01-16T15:06:37;6.75;;;1.10;;
36671;SDS011;22663;47.412;9.742;2023-01-16T15:09:03;4.95;;;0.90;;
36671;SDS011;22663;47.412;9.742;2023-01-16T15:11:30;1.85;;;1.10;;
36671;SDS011;22663;47.412;9.742;2023-01-16T15:14:15;2.92;;;0.77;;
36671;SDS011;22663;47.412;9.742;2023-01-16T15:22:56;5.05;;;1.25;;
36671;SDS011;22663;47.412;9.742;2023-01-16T15:25:29;2.50;;;1.08;;
36671;SDS011;22663;47.412;9.742;2023-01-16T15:28:21;2.22;;;0.77;;
36671;SDS011;22663;47.412;9.742;2023-01-16T15:30:44;4.43;;;1.60;;
36671;SDS011;22663;47.412;9.742;2023-01-16T15:33:22;4.18;;;2.15;;
36671;SDS011;22663;47.412;9.742;2023-01-16T15:36:26;1.58;;;0.90;;
36671;SDS011;22663;47.412;9.742;2023-01-16T15:38:58;2.55;;;1.00;;
36671;SDS011;22663;47.412;9.742;2023-01-16T15:41:26;2.85;;;1.20;;
36671;SDS011;22663;47.412;9.742;2023-01-16T15:44:12;2.42;;;1.52;;
36671;SDS011;22663;47.412;9.742;2023-01-16T15:52:01;2.72;;;1.50;;
36671;SDS011;22663;47.412;9.742;2023-01-16T15:54:27;4.63;;;1.92;;
36671;SDS011;22663;47.412;9.742;2023-01-16T15:56:53;6.45;;;1.48;;
36671;SDS011;22663;47.412;9.742;2023-01-16T15:59:27;3.90;;;1.75;;
36671;SDS011;22663;47.412;9.742;2023-01-16T16:04:31;5.82;;;2.15;;
36671;SDS011;22663;47.412;9.742;2023-01-16T16:06:57;4.28;;;2.10;;
36671;SDS011;22663;47.412;9.742;2023-01-16T16:09:23;4.40;;;1.90;;
36671;SDS011;22663;47.412;9.742;2023-01-16T16:11:50;3.03;;;1.38;;
36671;SDS011;22663;47.412;9.742;2023-01-16T16:17:26;5.13;;;2.13;;
36671;SDS011;22663;47.412;9.742;2023-01-16T16:22:53;6.35;;;2.58;;
36671;SDS011;22663;47.412;9.742;2023-01-16T16:25:29;8.88;;;2.72;;
36671;SDS011;22663;47.412;9.742;2023-01-16T16:27:56;4.72;;;2.70;;
36671;SDS011;22663;47.412;9.742;2023-01-16T16:30:23;5.93;;;3.20;;
36671;SDS011;22663;47.412;9.742;2023-01-16T16:32:50;7.07;;;3.95;;
36671;SDS011;22663;47.412;9.742;2023-01-16T16:35:18;5.47;;;2.88;;
36671;SDS011;22663;47.412;9.742;2023-01-16T16:37:45;7.25;;;3.53;;
36671;SDS011;22663;47.412;9.742;2023-01-16T16:40:13;8.63;;;3.30;;
36671;SDS011;22663;47.412;9.742;2023-01-16T16:42:49;6.32;;;3.65;;
36671;SDS011;22663;47.412;9.742;2023-01-16T16:45:24;7.93;;;3.40;;
36671;SDS011;22663;47.412;9.742;2023-01-16T16:50:36;5.97;;;3.13;;
36671;SDS011;22663;47.412;9.742;2023-01-16T16:55:48;6.50;;;4.00;;
36671;SDS011;22663;47.412;9.742;2023-01-16T16:58:18;7.30;;;4.10;;
36671;SDS011;22663;47.412;9.742;2023-01-16T17:00:45;7.80;;;3.80;;
36671;SDS011;22663;47.412;9.742;2023-01-16T17:03:15;8.65;;;3.90;;
36671;SDS011;22663;47.412;9.742;2023-01-16T17:05:42;8.93;;;3.95;;
36671;SDS011;22663;47.412;9.742;2023-01-16T17:08:13;7.57;;;3.47;;
36671;SDS011;22663;47.412;9.742;2023-01-16T17:10:40;8.45;;;4.10;;
36671;SDS011;22663;47.412;9.742;2023-01-16T17:13:07;6.40;;;3.03;;
36671;SDS011;22663;47.412;9.742;2023-01-16T17:15:34;6.50;;;2.72;;
36671;SDS011;22663;47.412;9.742;2023-01-16T17:18:00;3.50;;;1.95;;
36671;SDS011;22663;47.412;9.742;2023-01-16T17:20:26;3.63;;;1.50;;
36671;SDS011;22663;47.412;9.742;2023-01-16T17:22:53;2.33;;;1.10;;
36671;SDS011;22663;47.412;9.742;2023-01-16T17:25:19;3.65;;;1.48;;
36671;SDS011;22663;47.412;9.742;2023-01-16T17:27:46;5.25;;;1.27;;
36671;SDS011;22663;47.412;9.742;2023-01-16T17:30:13;1.73;;;1.17;;
36671;SDS011;22663;47.412;9.742;2023-01-16T17:32:39;2.40;;;1.23;;
36671;SDS011;22663;47.412;9.742;2023-01-16T17:35:10;1.65;;;1.10;;
36671;SDS011;22663;47.412;9.742;2023-01-16T17:37:37;1.73;;;0.70;;
36671;SDS011;22663;47.412;9.742;2023-01-16T17:40:03;1.40;;;0.80;;
36671;SDS011;22663;47.412;9.742;2023-01-16T17:42:29;0.80;;;0.55;;
36671;SDS011;22663;47.412;9.742;2023-01-16T17:48:14;1.13;;;0.63;;
36671;SDS011;22663;47.412;9.742;2023-01-16T17:50:40;2.33;;;1.20;;
36671;SDS011;22663;47.412;9.742;2023-01-16T17:53:09;1.75;;;1.10;;
36671;SDS011;22663;47.412;9.742;2023-01-16T17:55:36;2.03;;;1.08;;
36671;SDS011;22663;47.412;9.742;2023-01-16T17:58:18;3.47;;;1.30;;
36671;SDS011;22663;47.412;9.742;2023-01-16T18:01:00;1.65;;;1.00;;
36671;SDS011;22663;47.412;9.742;2023-01-16T18:03:28;5.30;;;1.17;;
36671;SDS011;22663;47.412;9.742;2023-01-16T18:06:02;3.90;;;1.40;;
36671;SDS011;22663;47.412;9.742;2023-01-16T18:08:28;3.15;;;1.58;;
36671;SDS011;22663;47.412;9.742;2023-01-16T18:10:55;4.32;;;2.00;;